sensor_id;sensor_type;location;lat;lon;timestamp;pressure;altitude;pressure_sealevel;temperature;humidity
83512;BME280;73446;0.000;0.000;2024-01-30T00:00:40;100044.63;;;19.77;28.01
83512;BME280;73446;0.000;0.000;2024-01-30T00:03:24;100042.78;;;19.77;27.99
83512;BME280;73446;0.000;0.000;2024-01-30T00:06:08;100036.63;;;19.77;27.76
83512;BME280;73446;0.000;0.000;2024-01-30T00:08:52;100048.13;;;19.77;27.72
83512;BME280;73446;0.000;0.000;2024-01-30T00:11:37;100046.00;;;19.79;27.21
83512;BME280;73446;0.000;0.000;2024-01-30T00:14:21;100056.69;;;19.79;27.36
83512;BME280;73446;0.000;0.000;2024-01-30T00:17:06;100055.38;;;19.82;27.14
83512;BME280;73446;0.000;0.000;2024-01-30T00:19:49;100053.50;;;19.82;27.09
83512;BME280;73446;0.000;0.000;2024-01-30T00:22:33;100051.66;;;19.83;26.92
83512;BME280;73446;0.000;0.000;2024-01-30T00:25:17;100057.22;;;19.81;26.93
83512;BME280;73446;0.000;0.000;2024-01-30T00:28:02;100051.88;;;19.81;27.24
83512;BME280;73446;0.000;0.000;2024-01-30T00:30:46;100058.53;;;19.79;29.08
83512;BME280;73446;0.000;0.000;2024-01-30T00:33:30;100050.44;;;19.74;29.39
83512;BME280;73446;0.000;0.000;2024-01-30T00:36:14;100064.59;;;19.74;28.48
83512;BME280;73446;0.000;0.000;2024-01-30T00:38:58;100054.50;;;19.76;28.11
83512;BME280;73446;0.000;0.000;2024-01-30T00:41:41;100054.50;;;19.76;27.97
83512;BME280;73446;0.000;0.000;2024-01-30T00:44:25;100061.44;;;19.77;27.74
83512;BME280;73446;0.000;0.000;2024-01-30T00:47:10;100056.13;;;19.77;27.61
83512;BME280;73446;0.000;0.000;2024-01-30T00:49:54;100058.78;;;19.77;27.84
83512;BME280;73446;0.000;0.000;2024-01-30T00:52:38;100049.72;;;19.78;27.41
83512;BME280;73446;0.000;0.000;2024-01-30T00:55:22;100050.31;;;19.80;27.07
83512;BME280;73446;0.000;0.000;2024-01-30T00:58:06;100057.22;;;19.81;26.84
83512;BME280;73446;0.000;0.000;2024-01-30T01:00:51;100055.94;;;19.84;26.51
83512;BME280;73446;0.000;0.000;2024-01-30T01:03:35;100055.13;;;19.83;26.59
83512;BME280;73446;0.000;0.000;2024-01-30T01:06:19;100054.09;;;19.84;26.43
83512;BME280;73446;0.000;0.000;2024-01-30T01:09:03;100058.59;;;19.84;26.69
83512;BME280;73446;0.000;0.000;2024-01-30T01:11:47;100056.19;;;19.82;27.11
83512;BME280;73446;0.000;0.000;2024-01-30T01:14:31;100066.53;;;19.79;29.04
83512;BME280;73446;0.000;0.000;2024-01-30T01:17:15;100069.94;;;19.74;28.82
83512;BME280;73446;0.000;0.000;2024-01-30T01:19:59;100068.31;;;19.73;27.92
83512;BME280;73446;0.000;0.000;2024-01-30T01:22:44;100074.22;;;19.75;28.01
83512;BME280;73446;0.000;0.000;2024-01-30T01:25:27;100065.97;;;19.77;27.76
83512;BME280;73446;0.000;0.000;2024-01-30T01:28:12;100070.25;;;19.78;27.46
83512;BME280;73446;0.000;0.000;2024-01-30T01:30:56;100062.25;;;19.78;27.50
83512;BME280;73446;0.000;0.000;2024-01-30T01:33:42;100061.22;;;19.79;27.45
83512;BME280;73446;0.000;0.000;2024-01-30T01:36:26;100054.25;;;19.78;27.45
83512;BME280;73446;0.000;0.000;2024-01-30T01:39:10;100060.16;;;19.80;27.00
83512;BME280;73446;0.000;0.000;2024-01-30T01:41:54;100052.97;;;19.80;27.11
83512;BME280;73446;0.000;0.000;2024-01-30T01:44:39;100050.84;;;19.82;26.83
83512;BME280;73446;0.000;0.000;2024-01-30T01:47:23;100056.75;;;19.84;26.56
83512;BME280;73446;0.000;0.000;2024-01-30T01:50:07;100047.13;;;19.83;26.60
83512;BME280;73446;0.000;0.000;2024-01-30T01:52:52;100045.03;;;19.85;26.62
83512;BME280;73446;0.000;0.000;2024-01-30T01:55:37;100047.13;;;19.83;26.54
83512;BME280;73446;0.000;0.000;2024-01-30T01:58:21;100040.19;;;19.82;27.06
83512;BME280;73446;0.000;0.000;2024-01-30T02:01:07;100040.09;;;19.77;28.85
83512;BME280;73446;0.000;0.000;2024-01-30T02:03:51;100043.25;;;19.74;28.58
83512;BME280;73446;0.000;0.000;2024-01-30T02:06:36;100036.88;;;19.75;27.71
83512;BME280;73446;0.000;0.000;2024-01-30T02:09:20;100041.97;;;19.77;27.61
83512;BME280;73446;0.000;0.000;2024-01-30T02:12:04;100038.25;;;19.78;27.27
83512;BME280;73446;0.000;0.000;2024-01-30T02:14:48;100046.00;;;19.79;27.19
83512;BME280;73446;0.000;0.000;2024-01-30T02:17:33;100041.50;;;19.80;26.99
83512;BME280;73446;0.000;0.000;2024-01-30T02:20:17;100046.00;;;19.79;27.02
83512;BME280;73446;0.000;0.000;2024-01-30T02:23:02;100042.31;;;19.80;26.91
83512;BME280;73446;0.000;0.000;2024-01-30T02:25:46;100043.88;;;19.81;26.65
83512;BME280;73446;0.000;0.000;2024-01-30T02:28:30;100040.19;;;19.82;26.59
83512;BME280;73446;0.000;0.000;2024-01-30T02:31:14;100049.78;;;19.83;26.39
83512;BME280;73446;0.000;0.000;2024-01-30T02:33:58;100048.75;;;19.84;26.22
83512;BME280;73446;0.000;0.000;2024-01-30T02:36:42;100052.22;;;19.85;26.16
83512;BME280;73446;0.000;0.000;2024-01-30T02:39:26;100040.50;;;19.86;25.98
83512;BME280;73446;0.000;0.000;2024-01-30T02:42:10;100036.69;;;19.82;27.48
83512;BME280;73446;0.000;0.000;2024-01-30T02:44:54;100046.50;;;19.76;28.38
83512;BME280;73446;0.000;0.000;2024-01-30T02:47:39;100039.53;;;19.75;27.45
83512;BME280;73446;0.000;0.000;2024-01-30T02:50:23;100043.34;;;19.79;27.04
83512;BME280;73446;0.000;0.000;2024-01-30T02:53:07;100038.56;;;19.81;26.84
83512;BME280;73446;0.000;0.000;2024-01-30T02:55:52;100037.75;;;19.81;26.51
83512;BME280;73446;0.000;0.000;2024-01-30T02:58:36;100040.19;;;19.82;26.44
83512;BME280;73446;0.000;0.000;2024-01-30T03:01:20;100038.56;;;19.81;26.35
83512;BME280;73446;0.000;0.000;2024-01-30T03:04:04;100037.75;;;19.81;26.25
83512;BME280;73446;0.000;0.000;2024-01-30T03:06:48;100030.56;;;19.81;26.42
83512;BME280;73446;0.000;0.000;2024-01-30T03:09:32;100040.97;;;19.83;26.17
83512;BME280;73446;0.000;0.000;2024-01-30T03:12:16;100038.06;;;19.84;26.18
83512;BME280;73446;0.000;0.000;2024-01-30T03:15:00;100033.56;;;19.85;26.06
83512;BME280;73446;0.000;0.000;2024-01-30T03:17:44;100030.66;;;19.86;26.01
83512;BME280;73446;0.000;0.000;2024-01-30T03:20:28;100038.66;;;19.86;26.01
83512;BME280;73446;0.000;0.000;2024-01-30T03:23:11;100036.22;;;19.85;27.14
83512;BME280;73446;0.000;0.000;2024-01-30T03:25:56;100042.78;;;19.77;28.41
83512;BME280;73446;0.000;0.000;2024-01-30T03:28:40;100036.88;;;19.75;27.52
83512;BME280;73446;0.000;0.000;2024-01-30T03:31:24;100045.22;;;19.79;26.74
83512;BME280;73446;0.000;0.000;2024-01-30T03:34:08;100046.56;;;19.81;26.45
83512;BME280;73446;0.000;0.000;2024-01-30T03:36:52;100042.59;;;19.84;26.15
83512;BME280;73446;0.000;0.000;2024-01-30T03:39:36;100040.75;;;19.84;26.21
83512;BME280;73446;0.000;0.000;2024-01-30T03:42:20;100035.16;;;19.86;26.20
83512;BME280;73446;0.000;0.000;2024-01-30T03:45:04;100037.84;;;19.86;26.07
83512;BME280;73446;0.000;0.000;2024-01-30T03:47:48;100039.47;;;19.87;26.00
83512;BME280;73446;0.000;0.000;2024-01-30T03:50:33;100046.66;;;19.86;25.84
83512;BME280;73446;0.000;0.000;2024-01-30T03:53:17;100041.88;;;19.88;25.89
83512;BME280;73446;0.000;0.000;2024-01-30T03:56:01;100046.41;;;19.88;25.80
83512;BME280;73446;0.000;0.000;2024-01-30T03:58:45;100033.88;;;19.88;26.02
83512;BME280;73446;0.000;0.000;2024-01-30T04:01:29;100034.69;;;19.89;25.89
83512;BME280;73446;0.000;0.000;2024-01-30T04:04:13;100033.78;;;19.83;27.46
83512;BME280;73446;0.000;0.000;2024-01-30T04:06:57;100044.06;;;19.75;27.93
83512;BME280;73446;0.000;0.000;2024-01-30T04:09:41;100046.00;;;19.79;27.13
83512;BME280;73446;0.000;0.000;2024-01-30T04:12:25;100036.47;;;19.83;26.54
83512;BME280;73446;0.000;0.000;2024-01-30T04:15:09;100041.31;;;19.86;26.44
83512;BME280;73446;0.000;0.000;2024-01-30T04:17:53;100034.94;;;19.87;26.21
83512;BME280;73446;0.000;0.000;2024-01-30T04:20:37;100036.56;;;19.88;26.28
83512;BME280;73446;0.000;0.000;2024-01-30T04:23:21;100032.84;;;19.89;26.07
83512;BME280;73446;0.000;0.000;2024-01-30T04:26:05;100044.56;;;19.88;25.86
83512;BME280;73446;0.000;0.000;2024-01-30T04:28:50;100041.66;;;19.90;25.96
83512;BME280;73446;0.000;0.000;2024-01-30T04:31:36;100037.13;;;19.90;25.89
83512;BME280;73446;0.000;0.000;2024-01-30T04:34:20;100037.13;;;19.90;25.76
83512;BME280;73446;0.000;0.000;2024-01-30T04:37:04;100036.06;;;19.91;25.83
83512;BME280;73446;0.000;0.000;2024-01-30T04:39:47;100034.44;;;19.90;25.86
83512;BME280;73446;0.000;0.000;2024-01-30T04:42:31;100035.75;;;19.88;26.52
83512;BME280;73446;0.000;0.000;2024-01-30T04:45:15;100036.16;;;19.80;27.77
83512;BME280;73446;0.000;0.000;2024-01-30T04:47:59;100035.34;;;19.79;27.11
83512;BME280;73446;0.000;0.000;2024-01-30T04:50:43;100030.31;;;19.83;26.56
83512;BME280;73446;0.000;0.000;2024-01-30T04:53:27;100031.69;;;19.85;26.42
83512;BME280;73446;0.000;0.000;2024-01-30T04:56:11;100038.88;;;19.85;26.03
83512;BME280;73446;0.000;0.000;2024-01-30T04:58:55;100043.16;;;19.86;26.00
83512;BME280;73446;0.000;0.000;2024-01-30T05:01:39;100030.06;;;19.84;26.14
83512;BME280;73446;0.000;0.000;2024-01-30T05:04:23;100037.03;;;19.85;25.75
83512;BME280;73446;0.000;0.000;2024-01-30T05:07:07;100035.97;;;19.86;25.98
83512;BME280;73446;0.000;0.000;2024-01-30T05:09:51;100035.16;;;19.86;25.82
83512;BME280;73446;0.000;0.000;2024-01-30T05:12:35;100035.97;;;19.86;25.70
83512;BME280;73446;0.000;0.000;2024-01-30T05:15:19;100040.84;;;19.89;25.69
83512;BME280;73446;0.000;0.000;2024-01-30T05:18:03;100040.03;;;19.89;25.88
83512;BME280;73446;0.000;0.000;2024-01-30T05:20:47;100033.66;;;19.90;25.73
83512;BME280;73446;0.000;0.000;2024-01-30T05:23:31;100039.13;;;19.83;27.18
83512;BME280;73446;0.000;0.000;2024-01-30T05:26:15;100043.81;;;19.76;27.51
83512;BME280;73446;0.000;0.000;2024-01-30T05:29:00;100047.06;;;19.78;26.63
83512;BME280;73446;0.000;0.000;2024-01-30T05:31:43;100047.38;;;19.82;26.38
83512;BME280;73446;0.000;0.000;2024-01-30T05:34:27;100051.97;;;19.86;26.32
83512;BME280;73446;0.000;0.000;2024-01-30T05:37:11;100047.47;;;19.87;25.96
83512;BME280;73446;0.000;0.000;2024-01-30T05:40:00;100049.06;;;19.88;25.79
83512;BME280;73446;0.000;0.000;2024-01-30T05:42:44;100049.06;;;19.88;25.78
83512;BME280;73446;0.000;0.000;2024-01-30T05:45:28;100046.41;;;19.88;25.57
83512;BME280;73446;0.000;0.000;2024-01-30T05:48:13;100060.56;;;19.88;25.69
83512;BME280;73446;0.000;0.000;2024-01-30T05:50:57;100059.50;;;19.89;25.73
83512;BME280;73446;0.000;0.000;2024-01-30T05:53:41;100049.66;;;19.90;25.54
83512;BME280;73446;0.000;0.000;2024-01-30T05:56:25;100059.75;;;19.88;25.90
83512;BME280;73446;0.000;0.000;2024-01-30T05:59:08;100065.31;;;19.86;25.72
83512;BME280;73446;0.000;0.000;2024-01-30T06:01:52;100072.03;;;19.89;25.87
83512;BME280;73446;0.000;0.000;2024-01-30T06:04:36;100067.50;;;19.89;26.15
83512;BME280;73446;0.000;0.000;2024-01-30T06:07:20;100063.00;;;19.90;26.56
83512;BME280;73446;0.000;0.000;2024-01-30T06:10:06;100075.41;;;19.84;27.26
83512;BME280;73446;0.000;0.000;2024-01-30T06:12:50;100071.38;;;19.82;29.09
83512;BME280;73446;0.000;0.000;2024-01-30T06:15:34;100066.00;;;19.94;28.88
83512;BME280;73446;0.000;0.000;2024-01-30T06:18:18;100056.53;;;20.03;28.55
83512;BME280;73446;0.000;0.000;2024-01-30T06:21:02;100064.28;;;20.04;28.25
83512;BME280;73446;0.000;0.000;2024-01-30T06:23:48;100056.03;;;20.06;28.64
83512;BME280;73446;0.000;0.000;2024-01-30T06:26:32;100057.09;;;20.05;29.07
83512;BME280;73446;0.000;0.000;2024-01-30T06:29:16;100054.09;;;20.01;29.18
83512;BME280;73446;0.000;0.000;2024-01-30T06:32:00;100054.03;;;19.96;29.17
83512;BME280;73446;0.000;0.000;2024-01-30T06:34:44;100061.22;;;19.96;28.18
83512;BME280;73446;0.000;0.000;2024-01-30T06:37:28;100061.22;;;19.96;28.19
83512;BME280;73446;0.000;0.000;2024-01-30T06:40:12;100064.94;;;19.95;27.78
83512;BME280;73446;0.000;0.000;2024-01-30T06:42:56;100057.97;;;19.94;27.42
83512;BME280;73446;0.000;0.000;2024-01-30T06:45:40;100052.66;;;19.94;27.09
83512;BME280;73446;0.000;0.000;2024-01-30T06:48:24;100059.59;;;19.95;26.77
83512;BME280;73446;0.000;0.000;2024-01-30T06:51:08;100049.88;;;19.88;27.40
83512;BME280;73446;0.000;0.000;2024-01-30T06:53:52;100054.81;;;19.80;28.27
83512;BME280;73446;0.000;0.000;2024-01-30T06:56:35;100061.69;;;19.76;28.63
83512;BME280;73446;0.000;0.000;2024-01-30T06:59:19;100052.88;;;19.75;28.84
83512;BME280;73446;0.000;0.000;2024-01-30T07:02:04;100060.88;;;19.75;28.50
83512;BME280;73446;0.000;0.000;2024-01-30T07:04:48;100053.13;;;19.74;28.75
83512;BME280;73446;0.000;0.000;2024-01-30T07:07:33;100064.59;;;19.74;28.32
83512;BME280;73446;0.000;0.000;2024-01-30T07:10:16;100063.63;;;19.80;27.59
83512;BME280;73446;0.000;0.000;2024-01-30T07:13:01;100059.41;;;19.84;27.22
83512;BME280;73446;0.000;0.000;2024-01-30T07:15:45;100057.31;;;19.86;26.89
83512;BME280;73446;0.000;0.000;2024-01-30T07:18:30;100063.22;;;19.88;26.67
83512;BME280;73446;0.000;0.000;2024-01-30T07:21:13;100071.00;;;19.90;26.71
83512;BME280;73446;0.000;0.000;2024-01-30T07:23:58;100066.72;;;19.89;26.63
83512;BME280;73446;0.000;0.000;2024-01-30T07:26:42;100074.13;;;19.87;28.93
83512;BME280;73446;0.000;0.000;2024-01-30T07:29:26;100064.75;;;19.84;29.51
83512;BME280;73446;0.000;0.000;2024-01-30T07:32:10;100077.53;;;19.82;29.78
83512;BME280;73446;0.000;0.000;2024-01-30T07:34:54;100069.38;;;19.89;28.50
83512;BME280;73446;0.000;0.000;2024-01-30T07:37:37;100084.72;;;19.82;29.40
83512;BME280;73446;0.000;0.000;2024-01-30T07:40:21;100085.44;;;19.77;30.71
83512;BME280;73446;0.000;0.000;2024-01-30T07:43:05;100085.22;;;19.79;30.83
83512;BME280;73446;0.000;0.000;2024-01-30T07:45:49;100077.44;;;19.77;31.02
83512;BME280;73446;0.000;0.000;2024-01-30T07:48:33;100076.88;;;19.75;30.72
83512;BME280;73446;0.000;0.000;2024-01-30T07:51:18;100084.88;;;19.75;30.55
83512;BME280;73446;0.000;0.000;2024-01-30T07:54:01;100091.38;;;19.79;30.19
83512;BME280;73446;0.000;0.000;2024-01-30T07:56:45;100087.72;;;19.85;29.94
83512;BME280;73446;0.000;0.000;2024-01-30T07:59:29;100085.63;;;19.87;29.63
83512;BME280;73446;0.000;0.000;2024-01-30T08:02:13;100077.38;;;19.89;29.82
83512;BME280;73446;0.000;0.000;2024-01-30T08:04:57;100088.63;;;19.91;29.27
83512;BME280;73446;0.000;0.000;2024-01-30T08:07:42;100085.72;;;19.92;28.61
83512;BME280;73446;0.000;0.000;2024-01-30T08:10:26;100080.38;;;19.92;28.15
83512;BME280;73446;0.000;0.000;2024-01-30T08:13:10;100078.53;;;19.93;28.06
83512;BME280;73446;0.000;0.000;2024-01-30T08:15:54;100086.28;;;19.95;27.74
83512;BME280;73446;0.000;0.000;2024-01-30T08:18:38;100092.44;;;19.95;27.85
83512;BME280;73446;0.000;0.000;2024-01-30T08:21:22;100090.56;;;19.96;27.85
83512;BME280;73446;0.000;0.000;2024-01-30T08:24:07;100093.38;;;19.89;28.46
83512;BME280;73446;0.000;0.000;2024-01-30T08:26:51;100100.47;;;19.83;30.04
83512;BME280;73446;0.000;0.000;2024-01-30T08:29:35;100095.16;;;19.83;30.78
83512;BME280;73446;0.000;0.000;2024-01-30T08:32:19;100105.81;;;19.83;30.91
83512;BME280;73446;0.000;0.000;2024-01-30T08:35:03;100104.19;;;19.82;30.50
83512;BME280;73446;0.000;0.000;2024-01-30T08:37:47;100112.38;;;19.92;35.10
83512;BME280;73446;0.000;0.000;2024-01-30T08:40:31;100105.94;;;20.05;34.76
83512;BME280;73446;0.000;0.000;2024-01-30T08:43:15;100110.53;;;20.10;34.16
83512;BME280;73446;0.000;0.000;2024-01-30T08:46:00;100105.78;;;20.12;33.38
83512;BME280;73446;0.000;0.000;2024-01-30T08:48:44;100106.31;;;20.14;33.11
83512;BME280;73446;0.000;0.000;2024-01-30T08:51:28;100105.28;;;20.15;32.73
83512;BME280;73446;0.000;0.000;2024-01-30T08:54:12;100107.94;;;20.15;32.77
83512;BME280;73446;0.000;0.000;2024-01-30T08:56:56;100118.63;;;20.15;32.39
83512;BME280;73446;0.000;0.000;2024-01-30T08:59:42;100117.81;;;20.14;32.30
83512;BME280;73446;0.000;0.000;2024-01-30T09:02:28;100122.66;;;20.17;32.16
83512;BME280;73446;0.000;0.000;2024-01-30T09:05:12;100127.28;;;20.22;32.26
83512;BME280;73446;0.000;0.000;2024-01-30T09:07:56;100116.63;;;20.22;32.18
83512;BME280;73446;0.000;0.000;2024-01-30T09:10:40;100113.59;;;20.18;32.26
83512;BME280;73446;0.000;0.000;2024-01-30T09:13:24;100116.53;;;20.17;31.40
83512;BME280;73446;0.000;0.000;2024-01-30T09:16:08;100112.66;;;20.08;32.22
83512;BME280;73446;0.000;0.000;2024-01-30T09:18:52;100117.78;;;19.98;34.06
83512;BME280;73446;0.000;0.000;2024-01-30T09:21:36;100117.88;;;20.03;32.85
83512;BME280;73446;0.000;0.000;2024-01-30T09:24:20;100119.59;;;20.09;32.35
83512;BME280;73446;0.000;0.000;2024-01-30T09:27:05;100128.19;;;20.11;31.38
83512;BME280;73446;0.000;0.000;2024-01-30T09:29:49;100127.66;;;20.14;31.28
83512;BME280;73446;0.000;0.000;2024-01-30T09:32:33;100126.09;;;20.13;30.97
83512;BME280;73446;0.000;0.000;2024-01-30T09:35:17;100135.69;;;20.14;30.98
83512;BME280;73446;0.000;0.000;2024-01-30T09:38:02;100141.59;;;20.16;30.80
83512;BME280;73446;0.000;0.000;2024-01-30T09:40:53;100125.56;;;20.16;30.74
83512;BME280;73446;0.000;0.000;2024-01-30T09:43:37;100132.53;;;20.17;30.24
83512;BME280;73446;0.000;0.000;2024-01-30T09:46:26;100132.53;;;20.17;30.26
83512;BME280;73446;0.000;0.000;2024-01-30T09:49:11;100130.44;;;20.19;30.45
83512;BME280;73446;0.000;0.000;2024-01-30T09:51:56;100124.03;;;20.20;30.16
83512;BME280;73446;0.000;0.000;2024-01-30T09:54:41;100123.22;;;20.19;30.33
83512;BME280;73446;0.000;0.000;2024-01-30T09:57:25;100129.38;;;20.20;30.17
83512;BME280;73446;0.000;0.000;2024-01-30T10:00:10;100136.59;;;20.19;29.71
83512;BME280;73446;0.000;0.000;2024-01-30T10:02:55;100140.88;;;20.20;29.92
83512;BME280;73446;0.000;0.000;2024-01-30T10:05:40;100136.34;;;20.21;29.55
83512;BME280;73446;0.000;0.000;2024-01-30T10:08:26;100137.97;;;20.22;29.62
83512;BME280;73446;0.000;0.000;2024-01-30T10:11:10;100127.19;;;20.17;30.43
83512;BME280;73446;0.000;0.000;2024-01-30T10:13:54;100135.28;;;20.05;31.40
83512;BME280;73446;0.000;0.000;2024-01-30T10:16:38;100135.03;;;20.07;31.46
83512;BME280;73446;0.000;0.000;2024-01-30T10:19:22;100136.50;;;20.14;31.06
83512;BME280;73446;0.000;0.000;2024-01-30T10:22:06;100142.16;;;20.18;30.70
83512;BME280;73446;0.000;0.000;2024-01-30T10:24:51;100132.88;;;20.20;30.29
83512;BME280;73446;0.000;0.000;2024-01-30T10:27:35;100142.25;;;20.23;30.25
83512;BME280;73446;0.000;0.000;2024-01-30T10:30:19;100148.41;;;20.23;30.46
83512;BME280;73446;0.000;0.000;2024-01-30T10:33:03;100140.16;;;20.25;30.41
83512;BME280;73446;0.000;0.000;2024-01-30T10:35:48;100137.47;;;20.25;30.49
83512;BME280;73446;0.000;0.000;2024-01-30T10:38:33;100140.72;;;20.27;30.03
83512;BME280;73446;0.000;0.000;2024-01-30T10:41:26;100135.63;;;20.25;30.19
83512;BME280;73446;0.000;0.000;2024-01-30T10:44:11;100151.41;;;20.27;30.45
83512;BME280;73446;0.000;0.000;2024-01-30T10:47:00;100149.53;;;20.27;30.29
83512;BME280;73446;0.000;0.000;2024-01-30T10:49:47;100137.53;;;20.30;30.20
83512;BME280;73446;0.000;0.000;2024-01-30T10:52:32;100140.22;;;20.30;30.36
83512;BME280;73446;0.000;0.000;2024-01-30T10:55:16;100141.84;;;20.31;30.63
83512;BME280;73446;0.000;0.000;2024-01-30T10:58:02;100129.31;;;20.32;30.29
83512;BME280;73446;0.000;0.000;2024-01-30T11:00:46;100136.00;;;20.34;30.50
83512;BME280;73446;0.000;0.000;2024-01-30T11:03:31;100128.50;;;20.31;30.41
83512;BME280;73446;0.000;0.000;2024-01-30T11:06:16;100137.06;;;20.33;30.03
83512;BME280;73446;0.000;0.000;2024-01-30T11:09:02;100122.66;;;20.34;29.73
83512;BME280;73446;0.000;0.000;2024-01-30T11:11:58;100137.63;;;20.35;29.77
83512;BME280;73446;0.000;0.000;2024-01-30T11:14:45;100127.19;;;20.34;29.49
83512;BME280;73446;0.000;0.000;2024-01-30T11:20:32;100129.06;;;20.33;29.55
83512;BME280;73446;0.000;0.000;2024-01-30T11:23:16;100127.28;;;20.22;29.98
83512;BME280;73446;0.000;0.000;2024-01-30T11:26:00;100109.81;;;20.14;31.23
83512;BME280;73446;0.000;0.000;2024-01-30T11:28:52;100112.22;;;20.16;31.21
83512;BME280;73446;0.000;0.000;2024-01-30T11:31:37;100109.56;;;20.16;31.24
83512;BME280;73446;0.000;0.000;2024-01-30T11:34:21;100101.78;;;20.14;31.23
83512;BME280;73446;0.000;0.000;2024-01-30T11:37:10;100108.19;;;20.13;31.13
83512;BME280;73446;0.000;0.000;2024-01-30T11:39:56;100113.78;;;20.12;31.14
83512;BME280;73446;0.000;0.000;2024-01-30T11:42:40;100110.06;;;20.13;31.19
83512;BME280;73446;0.000;0.000;2024-01-30T11:45:25;100103.94;;;20.12;31.36
83512;BME280;73446;0.000;0.000;2024-01-30T11:48:11;100109.25;;;20.12;31.49
83512;BME280;73446;0.000;0.000;2024-01-30T11:50:55;100105.78;;;20.12;31.49
83512;BME280;73446;0.000;0.000;2024-01-30T11:53:41;100103.13;;;20.12;31.47
83512;BME280;73446;0.000;0.000;2024-01-30T11:56:25;100108.44;;;20.12;31.21
83512;BME280;73446;0.000;0.000;2024-01-30T11:59:10;100095.09;;;20.12;31.35
83512;BME280;73446;0.000;0.000;2024-01-30T12:01:54;100098.59;;;20.12;31.18
83512;BME280;73446;0.000;0.000;2024-01-30T12:04:38;100101.25;;;20.12;31.22
83512;BME280;73446;0.000;0.000;2024-01-30T12:07:22;100085.25;;;20.12;31.44
83512;BME280;73446;0.000;0.000;2024-01-30T12:10:08;100089.50;;;20.13;31.76
83512;BME280;73446;0.000;0.000;2024-01-30T12:12:53;100081.25;;;20.15;32.68
83512;BME280;73446;0.000;0.000;2024-01-30T12:15:37;100080.19;;;20.16;34.16
83512;BME280;73446;0.000;0.000;2024-01-30T12:18:21;100077.53;;;20.16;35.69
83512;BME280;73446;0.000;0.000;2024-01-30T12:21:05;100082.38;;;20.19;34.98
83512;BME280;73446;0.000;0.000;2024-01-30T12:23:49;100068.00;;;20.20;36.55
83512;BME280;73446;0.000;0.000;2024-01-30T12:26:33;100068.00;;;20.20;38.55
83512;BME280;73446;0.000;0.000;2024-01-30T12:29:17;100060.66;;;20.27;39.32
83512;BME280;73446;0.000;0.000;2024-01-30T12:32:01;100059.59;;;20.28;38.12
83512;BME280;73446;0.000;0.000;2024-01-30T12:34:44;100050.25;;;20.31;38.34
83512;BME280;73446;0.000;0.000;2024-01-30T12:37:30;100043.06;;;20.31;38.51
83512;BME280;73446;0.000;0.000;2024-01-30T12:40:14;100044.19;;;20.35;38.35
83512;BME280;73446;0.000;0.000;2024-01-30T12:42:58;100044.78;;;20.37;38.63
83512;BME280;73446;0.000;0.000;2024-01-30T12:45:42;100050.13;;;20.37;38.56
83512;BME280;73446;0.000;0.000;2024-01-30T12:48:26;100054.41;;;20.38;38.46
83512;BME280;73446;0.000;0.000;2024-01-30T12:51:12;100061.63;;;20.38;38.22
83512;BME280;73446;0.000;0.000;2024-01-30T12:53:57;100060.81;;;20.37;37.95
83512;BME280;73446;0.000;0.000;2024-01-30T12:56:41;100064.53;;;20.36;37.48
83512;BME280;73446;0.000;0.000;2024-01-30T12:59:25;100069.28;;;20.34;37.16
83512;BME280;73446;0.000;0.000;2024-01-30T13:02:09;100065.56;;;20.35;37.40
83512;BME280;73446;0.000;0.000;2024-01-30T13:04:54;100072.53;;;20.36;37.15
83512;BME280;73446;0.000;0.000;2024-01-30T13:07:38;100070.09;;;20.35;37.01
83512;BME280;73446;0.000;0.000;2024-01-30T13:10:22;100061.25;;;20.34;37.21
83512;BME280;73446;0.000;0.000;2024-01-30T13:13:07;100063.47;;;20.37;37.39
83512;BME280;73446;0.000;0.000;2024-01-30T13:15:53;100057.34;;;20.37;37.16
83512;BME280;73446;0.000;0.000;2024-01-30T13:18:37;100060.81;;;20.37;37.02
83512;BME280;73446;0.000;0.000;2024-01-30T13:21:21;100057.66;;;20.40;36.75
83512;BME280;73446;0.000;0.000;2024-01-30T13:24:05;100060.31;;;20.40;36.92
83512;BME280;73446;0.000;0.000;2024-01-30T13:26:50;100061.38;;;20.39;36.54
83512;BME280;73446;0.000;0.000;2024-01-30T13:29:34;100066.72;;;20.39;36.42
83512;BME280;73446;0.000;0.000;2024-01-30T13:32:18;100062.44;;;20.38;36.20
83512;BME280;73446;0.000;0.000;2024-01-30T13:35:02;100071.00;;;20.40;36.28
83512;BME280;73446;0.000;0.000;2024-01-30T13:37:47;100062.19;;;20.40;36.41
83512;BME280;73446;0.000;0.000;2024-01-30T13:40:32;100076.84;;;20.37;36.61
83512;BME280;73446;0.000;0.000;2024-01-30T13:43:16;100064.75;;;20.35;35.83
83512;BME280;73446;0.000;0.000;2024-01-30T13:46:01;100074.16;;;20.37;36.13
83512;BME280;73446;0.000;0.000;2024-01-30T13:48:45;100075.28;;;20.41;36.11
83512;BME280;73446;0.000;0.000;2024-01-30T13:51:29;100084.69;;;20.44;35.86
83512;BME280;73446;0.000;0.000;2024-01-30T13:54:13;100079.34;;;20.44;35.92
83512;BME280;73446;0.000;0.000;2024-01-30T13:56:58;100087.88;;;20.46;36.12
83512;BME280;73446;0.000;0.000;2024-01-30T13:59:43;100085.50;;;20.44;35.97
83512;BME280;73446;0.000;0.000;2024-01-30T14:02:27;100087.13;;;20.45;36.17
83512;BME280;73446;0.000;0.000;2024-01-30T14:05:10;100084.94;;;20.42;36.20
83512;BME280;73446;0.000;0.000;2024-01-30T14:07:55;100082.25;;;20.42;36.21
83512;BME280;73446;0.000;0.000;2024-01-30T14:10:40;100075.28;;;20.41;36.18
83512;BME280;73446;0.000;0.000;2024-01-30T14:13:24;100081.69;;;20.40;36.03
83512;BME280;73446;0.000;0.000;2024-01-30T14:16:08;100083.31;;;20.41;36.24
83512;BME280;73446;0.000;0.000;2024-01-30T14:18:53;100082.25;;;20.42;36.25
83512;BME280;73446;0.000;0.000;2024-01-30T14:21:37;100073.75;;;20.45;36.01
83512;BME280;73446;0.000;0.000;2024-01-30T14:24:21;100073.75;;;20.45;36.19
83512;BME280;73446;0.000;0.000;2024-01-30T14:27:05;100087.16;;;20.50;36.44
83512;BME280;73446;0.000;0.000;2024-01-30T14:29:51;100081.34;;;20.53;36.01
83512;BME280;73446;0.000;0.000;2024-01-30T14:32:35;100082.97;;;20.54;35.87